createdAt,value
2018-06-13T00:01:42.875Z,19.72
2018-06-13T00:04:11.629Z,19.47
2018-06-13T00:06:40.364Z,19.28
2018-06-13T00:09:09.565Z,19.37
2018-06-13T00:11:38.323Z,19.19
2018-06-13T00:14:06.976Z,19.68
2018-06-13T00:16:35.858Z,19.84
2018-06-13T00:19:04.474Z,19.47
2018-06-13T00:21:33.215Z,19.73
2018-06-13T00:24:02.172Z,19.74
2018-06-13T00:26:30.853Z,19.71
2018-06-13T00:28:59.617Z,19.98
2018-06-13T00:31:28.336Z,20.23
2018-06-13T00:33:56.959Z,20.63
2018-06-13T00:36:25.663Z,20.28
2018-06-13T00:38:54.375Z,20.57
2018-06-13T00:41:23.170Z,20.29
2018-06-13T00:43:51.861Z,19.90
2018-06-13T00:46:20.650Z,19.74
2018-06-13T00:48:49.351Z,20.23
2018-06-13T00:51:17.965Z,20.63
2018-06-13T00:53:46.642Z,20.75
2018-06-13T00:56:26.385Z,20.35
2018-06-13T00:58:55.056Z,20.30
2018-06-13T01:01:23.803Z,20.11
2018-06-13T01:03:52.424Z,20.17
2018-06-13T01:06:21.255Z,20.29
2018-06-13T01:08:49.946Z,20.41
2018-06-13T01:11:18.690Z,20.19
2018-06-13T01:13:47.457Z,20.38
2018-06-13T01:16:16.315Z,20.36
2018-06-13T01:18:45.071Z,20.61
2018-06-13T01:21:13.727Z,20.13
2018-06-13T01:23:42.418Z,19.49
2018-06-13T01:26:11.152Z,19.55
2018-06-13T01:28:39.958Z,19.69
2018-06-13T01:31:08.634Z,19.89
2018-06-13T01:33:37.457Z,20.16
2018-06-13T01:36:06.294Z,19.92
2018-06-13T01:38:35.089Z,19.56
2018-06-13T01:41:03.785Z,19.43
2018-06-13T01:43:32.484Z,19.62
2018-06-13T01:46:01.201Z,19.58
2018-06-13T01:48:29.869Z,19.63
2018-06-13T01:50:59.174Z,19.87
2018-06-13T01:53:29.545Z,20.26
2018-06-13T01:55:58.351Z,20.85
2018-06-13T01:58:27.047Z,20.14
2018-06-13T02:00:55.689Z,20.24
2018-06-13T02:03:24.323Z,20.50
2018-06-13T02:05:53.041Z,20.47
2018-06-13T02:08:21.662Z,20.64
2018-06-13T02:10:50.287Z,20.55
2018-06-13T02:13:18.947Z,19.92
2018-06-13T02:15:47.749Z,19.27
2018-06-13T02:18:16.493Z,19.12
2018-06-13T02:20:45.238Z,19.11
2018-06-13T02:23:14.046Z,18.67
2018-06-13T02:25:42.700Z,18.54
2018-06-13T02:28:11.497Z,17.93
2018-06-13T02:30:40.142Z,18.09
2018-06-13T02:33:08.663Z,17.51
2018-06-13T02:35:37.315Z,17.83
2018-06-13T02:38:06.122Z,17.33
2018-06-13T02:40:35.448Z,17.34
2018-06-13T02:43:04.214Z,17.77
2018-06-13T02:45:32.894Z,18.31
2018-06-13T02:48:01.756Z,18.54
2018-06-13T02:50:30.666Z,19.73
2018-06-13T02:52:59.254Z,20.03
2018-06-13T02:55:27.969Z,20.63
2018-06-13T02:57:56.657Z,20.47
2018-06-13T03:00:25.269Z,20.23
2018-06-13T03:02:53.881Z,19.67
2018-06-13T03:05:22.465Z,19.78
2018-06-13T03:07:51.136Z,20.72
2018-06-13T03:10:19.786Z,20.03
2018-06-13T03:12:48.450Z,20.41
2018-06-13T03:15:17.061Z,20.84
2018-06-13T03:17:45.633Z,21.14
2018-06-13T03:20:14.417Z,21.26
2018-06-13T03:22:43.068Z,21.05
2018-06-13T03:25:11.675Z,21.23
2018-06-13T03:27:40.304Z,21.35
2018-06-13T03:30:08.952Z,21.36
2018-06-13T03:32:37.548Z,21.53
2018-06-13T03:35:06.253Z,21.89
2018-06-13T03:37:34.934Z,22.18
2018-06-13T03:40:03.587Z,21.41
2018-06-13T03:42:32.255Z,21.87
2018-06-13T03:45:00.877Z,22.07
2018-06-13T03:47:29.846Z,21.63
2018-06-13T03:49:58.529Z,21.26
2018-06-13T03:52:27.420Z,21.39
2018-06-13T03:54:56.054Z,20.95
2018-06-13T03:57:24.731Z,20.83
2018-06-13T03:59:53.483Z,21.05
2018-06-13T04:02:22.157Z,21.55
2018-06-13T04:04:50.793Z,21.67
2018-06-13T04:07:19.642Z,21.61
2018-06-13T04:09:48.527Z,21.17
2018-06-13T04:12:17.198Z,20.94
2018-06-13T04:14:45.819Z,21.09
2018-06-13T04:17:14.526Z,20.78
2018-06-13T04:19:43.473Z,21.09
2018-06-13T04:22:12.133Z,21.36
2018-06-13T04:24:40.779Z,21.14
2018-06-13T04:27:09.481Z,20.61
2018-06-13T04:29:38.204Z,20.91
2018-06-13T04:32:06.896Z,20.80
2018-06-13T04:34:35.602Z,20.88
2018-06-13T04:37:04.311Z,21.78
2018-06-13T04:39:32.969Z,21.91
2018-06-13T04:42:01.722Z,22.02
2018-06-13T04:44:30.421Z,22.07
2018-06-13T04:46:59.096Z,21.80
2018-06-13T04:49:27.815Z,22.45
2018-06-13T04:51:56.599Z,21.67
2018-06-13T04:54:25.193Z,20.92
2018-06-13T04:56:53.924Z,21.64
2018-06-13T04:59:22.636Z,21.32
2018-06-13T05:01:51.526Z,21.38
2018-06-13T05:04:20.175Z,21.29
2018-06-13T05:06:48.869Z,21.71
2018-06-13T05:09:17.797Z,21.66
2018-06-13T05:11:46.382Z,21.84
2018-06-13T05:14:15.100Z,22.17
2018-06-13T05:16:43.775Z,21.64
2018-06-13T05:19:12.470Z,21.86
2018-06-13T05:21:41.300Z,21.42
2018-06-13T05:24:09.981Z,21.14
2018-06-13T05:26:38.645Z,20.52
2018-06-13T05:29:07.476Z,20.21
2018-06-13T05:31:36.124Z,20.79
2018-06-13T05:34:04.872Z,20.04
2018-06-13T05:36:33.511Z,20.55
2018-06-13T05:39:02.222Z,20.32
2018-06-13T05:41:30.793Z,20.68
2018-06-13T05:43:59.526Z,19.96
2018-06-13T05:46:28.344Z,20.26
2018-06-13T05:48:57.144Z,20.58
2018-06-13T05:51:25.858Z,20.77
2018-06-13T05:53:54.544Z,20.96
2018-06-13T05:56:23.154Z,20.99
2018-06-13T05:58:51.859Z,21.78
2018-06-13T06:01:20.781Z,22.06
2018-06-13T06:03:49.449Z,22.39
2018-06-13T06:06:18.204Z,21.88
2018-06-13T06:08:46.910Z,22.26
2018-06-13T06:11:15.639Z,21.84
2018-06-13T06:13:44.442Z,22.32
2018-06-13T06:16:13.125Z,22.24
2018-06-13T06:18:41.827Z,22.10
2018-06-13T06:21:10.571Z,22.10
2018-06-13T06:23:39.220Z,21.53
2018-06-13T06:26:07.890Z,20.96
2018-06-13T06:28:36.644Z,20.75
2018-06-13T06:31:05.456Z,21.65
2018-06-13T06:33:34.125Z,21.65
2018-06-13T06:36:02.833Z,21.44
2018-06-13T06:38:32.431Z,22.02
2018-06-13T06:41:01.166Z,21.91
2018-06-13T06:43:29.874Z,21.84
2018-06-13T06:45:58.538Z,21.95
2018-06-13T06:48:27.273Z,22.49
2018-06-13T06:50:55.982Z,22.70
2018-06-13T06:53:24.552Z,22.46
2018-06-13T06:55:53.251Z,23.28
2018-06-13T06:58:22.060Z,23.52
2018-06-13T07:00:50.768Z,23.99
2018-06-13T07:03:19.513Z,23.60
2018-06-13T07:05:48.221Z,24.01
2018-06-13T07:08:17.053Z,24.53
2018-06-13T07:10:45.699Z,24.57
2018-06-13T07:13:14.359Z,24.82
2018-06-13T07:15:42.983Z,24.86
2018-06-13T07:18:11.643Z,24.82
2018-06-13T07:20:40.527Z,24.49
2018-06-13T07:23:09.212Z,24.22
2018-06-13T07:25:37.828Z,23.68
2018-06-13T07:28:06.541Z,23.94
2018-06-13T07:30:35.241Z,22.87
2018-06-13T07:33:04.016Z,22.44
2018-06-13T07:35:32.846Z,21.64
2018-06-13T07:38:01.505Z,21.80
2018-06-13T07:40:30.120Z,21.26
2018-06-13T07:42:58.777Z,21.66
2018-06-13T07:45:27.485Z,22.19
2018-06-13T07:47:56.127Z,23.33
2018-06-13T07:50:25.002Z,23.89
2018-06-13T07:52:53.997Z,23.22
2018-06-13T07:55:22.836Z,23.75
2018-06-13T07:57:51.686Z,23.65
2018-06-13T08:00:20.415Z,23.80
2018-06-13T08:02:49.097Z,23.76
2018-06-13T08:05:17.790Z,23.90
2018-06-13T08:07:46.388Z,23.80
2018-06-13T08:10:15.078Z,24.21
2018-06-13T08:12:43.788Z,22.55
2018-06-13T08:15:12.393Z,23.40
2018-06-13T08:17:41.220Z,23.23
2018-06-13T08:20:09.881Z,23.08
2018-06-13T08:22:38.542Z,23.52
2018-06-13T08:25:07.270Z,23.54
2018-06-13T08:27:41.817Z,23.67
2018-06-13T08:30:10.510Z,24.45
2018-06-13T08:32:39.186Z,23.24
2018-06-13T08:35:08.506Z,23.16
2018-06-13T08:37:37.297Z,22.94
2018-06-13T08:40:06.822Z,22.62
2018-06-13T08:42:35.863Z,22.37
2018-06-13T08:45:05.470Z,21.44
2018-06-13T08:47:34.736Z,21.29
2018-06-13T08:50:04.100Z,22.28
2018-06-13T08:52:33.363Z,22.63
2018-06-13T08:55:02.827Z,23.05
2018-06-13T08:57:32.079Z,22.85
2018-06-13T09:00:02.002Z,23.45
2018-06-13T09:02:31.539Z,23.33
2018-06-13T09:05:00.207Z,23.28
2018-06-13T09:07:28.870Z,23.76
2018-06-13T09:09:57.913Z,23.93
2018-06-13T09:12:27.056Z,24.09
2018-06-13T09:14:55.854Z,24.32
2018-06-13T09:17:24.492Z,23.65
2018-06-13T09:19:53.083Z,23.86
2018-06-13T09:22:21.747Z,23.23
2018-06-13T09:24:50.405Z,22.25
2018-06-13T09:27:19.225Z,22.86
2018-06-13T09:29:48.123Z,22.25
2018-06-13T09:32:16.987Z,22.00
2018-06-13T09:34:46.133Z,22.52
2018-06-13T09:37:14.851Z,21.94
2018-06-13T09:39:43.493Z,21.84
2018-06-13T09:42:12.368Z,21.73
2018-06-13T09:44:40.968Z,21.77
2018-06-13T09:47:15.137Z,21.86
2018-06-13T09:49:38.407Z,21.70
2018-06-13T09:52:07.404Z,21.96
2018-06-13T09:54:36.201Z,22.62
2018-06-13T09:57:04.858Z,22.35
2018-06-13T09:59:36.778Z,23.18
2018-06-13T10:02:10.457Z,24.06
2018-06-13T10:04:39.017Z,23.89
2018-06-13T10:07:07.761Z,23.48
2018-06-13T10:09:36.638Z,23.61
2018-06-13T10:12:05.456Z,22.51
2018-06-13T10:14:34.075Z,21.78
2018-06-13T10:17:02.700Z,21.36
2018-06-13T10:19:31.269Z,21.19
2018-06-13T10:22:00.093Z,21.68
2018-06-13T10:24:28.955Z,21.75
2018-06-13T10:26:57.579Z,21.20
2018-06-13T10:29:26.195Z,21.51
2018-06-13T10:31:55.059Z,21.34
2018-06-13T10:34:23.768Z,22.00
2018-06-13T10:36:52.765Z,22.29
2018-06-13T10:39:21.445Z,22.16
2018-06-13T10:41:50.132Z,21.89
2018-06-13T10:44:18.958Z,21.86
2018-06-13T10:46:47.559Z,21.87
2018-06-13T10:49:16.399Z,22.40
2018-06-13T10:51:45.068Z,22.42
2018-06-13T10:54:13.821Z,22.12
2018-06-13T10:56:42.397Z,22.33
2018-06-13T10:59:11.171Z,22.26
2018-06-13T11:01:39.875Z,22.56
2018-06-13T11:04:08.461Z,22.93
2018-06-13T11:06:37.107Z,24.20
2018-06-13T11:09:08.338Z,24.79
2018-06-13T11:11:37.037Z,24.02
2018-06-13T11:14:05.856Z,24.52
2018-06-13T11:16:34.476Z,24.37
2018-06-13T11:19:03.157Z,24.95
2018-06-13T11:21:31.773Z,25.96
2018-06-13T11:24:00.395Z,26.68
2018-06-13T11:26:29.202Z,25.93
2018-06-13T11:28:57.927Z,25.19
2018-06-13T11:31:26.690Z,26.17
2018-06-13T11:33:55.401Z,25.87
2018-06-13T11:36:56.351Z,25.86
2018-06-13T11:39:30.380Z,24.67
2018-06-13T11:41:59.177Z,24.57
2018-06-13T11:44:32.433Z,24.62
2018-06-13T11:47:01.068Z,24.36
2018-06-13T11:49:29.628Z,24.48
2018-06-13T11:51:58.407Z,23.88
2018-06-13T11:54:27.212Z,23.20
2018-06-13T11:56:56.166Z,22.82
2018-06-13T11:59:25.167Z,22.66
2018-06-13T12:01:53.718Z,22.97
2018-06-13T12:04:22.522Z,23.12
2018-06-13T12:06:51.813Z,22.03
2018-06-13T12:09:20.684Z,22.12
2018-06-13T12:11:49.218Z,22.01
2018-06-13T12:14:17.893Z,21.44
2018-06-13T12:16:46.807Z,21.64
2018-06-13T12:19:15.435Z,21.33
2018-06-13T12:21:44.034Z,21.28
2018-06-13T12:24:12.791Z,22.02
2018-06-13T12:26:41.398Z,22.23
2018-06-13T12:29:10.348Z,21.71
2018-06-13T12:31:39.266Z,22.16
2018-06-13T12:34:07.940Z,22.57
2018-06-13T12:36:36.671Z,22.83
2018-06-13T12:39:07.866Z,22.79
2018-06-13T12:41:36.428Z,23.01
2018-06-13T12:44:05.127Z,23.20
2018-06-13T12:46:33.692Z,22.91
2018-06-13T12:49:02.566Z,23.28
2018-06-13T12:51:31.208Z,23.96
2018-06-13T12:53:59.801Z,23.98
2018-06-13T12:56:28.419Z,24.16
2018-06-13T12:58:57.227Z,25.57
2018-06-13T13:01:26.431Z,25.50
2018-06-13T13:03:55.129Z,25.98
2018-06-13T13:06:23.847Z,25.89
2018-06-13T13:08:52.739Z,26.25
2018-06-13T13:11:21.480Z,26.89
2018-06-13T13:13:50.174Z,27.41
2018-06-13T13:16:18.851Z,27.07
2018-06-13T13:18:47.484Z,27.38
2018-06-13T13:21:16.100Z,25.98
2018-06-13T13:23:44.744Z,25.98
2018-06-13T13:26:13.411Z,25.17
2018-06-13T13:28:42.178Z,23.89
2018-06-13T13:31:10.766Z,23.26
2018-06-13T13:33:39.575Z,21.69
2018-06-13T13:36:08.221Z,21.63
2018-06-13T13:38:37.038Z,20.79
2018-06-13T13:41:05.734Z,20.41
2018-06-13T13:43:34.317Z,21.04
2018-06-13T13:46:03.027Z,21.55
2018-06-13T13:48:31.886Z,22.17
2018-06-13T13:51:00.446Z,21.82
2018-06-13T13:53:28.968Z,21.81
2018-06-13T13:55:57.514Z,21.77
2018-06-13T13:58:26.276Z,22.12
2018-06-13T14:00:54.880Z,21.82
2018-06-13T14:03:23.462Z,23.13
2018-06-13T14:05:52.128Z,22.56
2018-06-13T14:08:20.680Z,23.18
2018-06-13T14:10:49.387Z,24.45
2018-06-13T14:13:18.191Z,24.66
2018-06-13T14:15:46.841Z,25.27
2018-06-13T14:18:15.446Z,25.57
2018-06-13T14:20:44.136Z,27.23
2018-06-13T14:23:12.718Z,28.25
2018-06-13T14:25:41.341Z,28.74
2018-06-13T14:28:09.937Z,29.02
2018-06-13T14:30:38.522Z,28.25
2018-06-13T14:33:07.294Z,26.80
2018-06-13T14:35:35.961Z,26.33
2018-06-13T14:38:04.703Z,25.33
2018-06-13T14:40:33.310Z,24.66
2018-06-13T14:43:01.916Z,24.63
2018-06-13T14:45:30.680Z,24.14
2018-06-13T14:47:59.388Z,24.04
2018-06-13T14:50:28.063Z,24.08
2018-06-13T14:52:56.659Z,23.88
2018-06-13T14:55:25.305Z,23.29
2018-06-13T14:57:53.898Z,24.26
2018-06-13T15:00:22.599Z,24.72
2018-06-13T15:02:51.222Z,24.98
2018-06-13T15:05:19.977Z,24.53
2018-06-13T15:07:48.577Z,24.80
2018-06-13T15:10:17.186Z,25.22
2018-06-13T15:12:45.849Z,24.14
2018-06-13T15:15:14.488Z,24.73
2018-06-13T15:17:43.120Z,24.54
2018-06-13T15:20:11.758Z,24.48
2018-06-13T15:22:40.298Z,24.42
2018-06-13T15:25:09.107Z,23.72
2018-06-13T15:27:37.746Z,23.30
2018-06-13T15:30:06.490Z,22.71
2018-06-13T15:32:35.217Z,22.29
2018-06-13T15:35:03.963Z,21.88
2018-06-13T15:37:33.079Z,21.58
2018-06-13T15:40:01.890Z,20.70
2018-06-13T15:42:30.574Z,20.64
2018-06-13T15:44:59.239Z,20.54
2018-06-13T15:47:27.897Z,20.24
2018-06-13T15:49:56.483Z,19.99
2018-06-13T15:52:25.576Z,20.37
2018-06-13T15:54:54.310Z,20.06
2018-06-13T15:57:22.966Z,20.05
2018-06-13T15:59:51.652Z,20.05
2018-06-13T16:02:20.323Z,20.16
2018-06-13T16:04:48.889Z,20.54
2018-06-13T16:07:17.519Z,20.21
2018-06-13T16:09:46.250Z,20.52
2018-06-13T16:12:14.886Z,20.64
2018-06-13T16:14:43.490Z,21.09
2018-06-13T16:17:12.263Z,21.22
2018-06-13T16:19:40.861Z,20.97
2018-06-13T16:22:09.451Z,21.16
2018-06-13T16:24:38.137Z,20.96
2018-06-13T16:27:06.888Z,20.28
2018-06-13T16:29:35.608Z,20.76
2018-06-13T16:32:04.174Z,20.63
2018-06-13T16:34:33.033Z,20.67
2018-06-13T16:37:01.629Z,20.79
2018-06-13T16:39:30.360Z,21.37
2018-06-13T16:41:59.187Z,21.16
2018-06-13T16:44:28.980Z,21.31
2018-06-13T16:46:57.776Z,20.88
2018-06-13T16:49:26.377Z,20.77
2018-06-13T16:51:57.102Z,21.12
2018-06-13T16:54:36.853Z,20.84
2018-06-13T16:57:05.546Z,20.56
2018-06-13T16:59:34.279Z,20.48
2018-06-13T17:23:21.930Z,20.19
2018-06-13T17:25:54.764Z,20.34
2018-06-13T17:28:23.721Z,20.38
2018-06-13T17:30:52.623Z,20.01
2018-06-13T17:33:21.390Z,19.92
2018-06-13T17:35:50.169Z,20.13
2018-06-13T17:38:19.594Z,20.36
2018-06-13T17:40:48.346Z,20.25
2018-06-13T17:43:17.113Z,20.19
2018-06-13T17:45:45.967Z,20.18
2018-06-13T17:48:14.680Z,20.10
2018-06-13T17:50:43.602Z,20.13
2018-06-13T17:53:12.418Z,19.95
2018-06-13T17:55:41.212Z,20.15
2018-06-13T17:58:09.991Z,19.88
2018-06-13T18:00:38.869Z,19.57
2018-06-13T18:03:08.057Z,19.49
2018-06-13T18:05:36.896Z,19.84
2018-06-13T18:08:05.576Z,19.58
2018-06-13T18:10:34.347Z,19.73
2018-06-13T18:13:03.082Z,20.25
2018-06-13T18:15:31.869Z,20.16
2018-06-13T18:18:00.620Z,19.95
2018-06-13T18:20:29.247Z,19.68
2018-06-13T18:22:57.968Z,19.75
2018-06-13T18:25:26.872Z,19.66
2018-06-13T18:27:55.631Z,19.80
2018-06-13T18:30:24.390Z,19.77
2018-06-13T18:32:53.104Z,19.63
2018-06-13T18:35:21.840Z,19.72
2018-06-13T18:37:50.692Z,19.44
2018-06-13T18:40:19.542Z,19.18
2018-06-13T18:42:48.229Z,19.29
2018-06-13T18:45:16.973Z,19.42
2018-06-13T18:47:45.719Z,19.38
2018-06-13T18:50:14.345Z,19.47
2018-06-13T18:52:43.073Z,19.07
2018-06-13T18:55:11.843Z,19.28
2018-06-13T18:57:40.585Z,19.44
2018-06-13T19:00:09.233Z,19.37
2018-06-13T19:02:38.149Z,19.35
2018-06-13T19:05:06.872Z,19.65
2018-06-13T19:07:35.701Z,19.58
2018-06-13T19:10:04.449Z,19.51
2018-06-13T19:12:33.495Z,19.48
2018-06-13T19:15:02.303Z,19.25
2018-06-13T19:17:31.170Z,19.43
2018-06-13T19:19:59.863Z,19.18
2018-06-13T19:22:28.641Z,19.46
2018-06-13T19:24:57.423Z,19.26
2018-06-13T19:27:26.214Z,19.26
2018-06-13T19:29:54.997Z,19.32
2018-06-13T19:32:23.794Z,19.25
2018-06-13T19:34:52.590Z,19.10
2018-06-13T19:37:21.426Z,19.22
2018-06-13T19:39:50.207Z,19.17
2018-06-13T19:42:19.101Z,19.13
2018-06-13T19:44:48.028Z,19.37
2018-06-13T19:47:23.620Z,19.49
2018-06-13T19:49:58.221Z,19.34
2018-06-13T19:52:32.997Z,19.32
2018-06-13T19:55:06.992Z,19.30
2018-06-13T19:57:39.182Z,19.04
2018-06-13T20:00:08.149Z,18.70
2018-06-13T20:02:42.196Z,19.02
2018-06-13T20:05:16.203Z,19.00
2018-06-13T20:07:44.977Z,18.76
2018-06-13T20:10:13.773Z,18.60
2018-06-13T20:12:47.686Z,19.23
2018-06-13T20:15:21.660Z,18.97
2018-06-13T20:17:55.745Z,19.12
2018-06-13T20:20:24.594Z,19.30
2018-06-13T20:22:53.582Z,19.28
2018-06-13T20:25:27.491Z,19.05
2018-06-13T20:28:01.521Z,19.10
2018-06-13T20:30:35.408Z,19.09
2018-06-13T20:33:04.345Z,18.78
2018-06-13T20:35:33.037Z,18.96
2018-06-13T20:38:01.916Z,18.83
2018-06-13T20:40:30.710Z,18.74
2018-06-13T20:50:04.967Z,18.83
2018-06-13T20:52:34.169Z,18.96
2018-06-13T20:55:03.280Z,18.90
2018-06-13T20:57:32.165Z,18.78
2018-06-13T21:00:01.229Z,18.76
2018-06-13T21:02:30.252Z,18.67
2018-06-13T21:04:59.090Z,18.73
2018-06-13T21:07:28.712Z,18.67
2018-06-13T21:09:57.652Z,18.73
2018-06-13T21:12:26.874Z,18.62
2018-06-13T21:14:56.737Z,18.88
2018-06-13T21:17:26.230Z,19.32
2018-06-13T21:19:56.662Z,19.58
2018-06-13T21:22:25.944Z,19.21
2018-06-13T21:24:55.322Z,19.18
2018-06-13T21:27:24.411Z,18.96
2018-06-13T21:29:53.652Z,18.94
2018-06-13T21:32:24.089Z,18.95
2018-06-13T21:34:53.004Z,19.01
2018-06-13T21:37:21.791Z,18.71
2018-06-13T21:39:50.569Z,18.52
2018-06-13T21:48:15.103Z,18.72
2018-06-13T21:50:44.923Z,18.57
2018-06-13T21:53:14.016Z,18.52
2018-06-13T21:55:43.417Z,18.58
2018-06-13T21:58:13.506Z,18.82
2018-06-13T22:00:43.837Z,18.73
2018-06-13T22:03:13.359Z,18.76
2018-06-13T22:05:42.415Z,18.61
2018-06-13T22:08:11.550Z,18.62
2018-06-13T22:10:40.762Z,18.14
2018-06-13T22:13:09.662Z,18.53
2018-06-13T22:15:38.676Z,18.50
2018-06-13T22:18:07.600Z,18.66
2018-06-13T22:20:36.703Z,18.80
2018-06-13T22:23:05.443Z,18.73
2018-06-13T22:25:34.664Z,18.79
2018-06-13T22:28:03.872Z,18.72
2018-06-13T22:30:33.601Z,18.72
2018-06-13T22:33:03.732Z,18.53
2018-06-13T22:35:33.275Z,18.59
2018-06-13T22:38:02.969Z,18.78
2018-06-13T22:40:31.950Z,18.73
2018-06-13T22:43:01.117Z,18.68
2018-06-13T22:45:30.058Z,18.78
2018-06-13T22:47:58.898Z,18.78
2018-06-13T22:50:27.773Z,18.79
2018-06-13T22:52:56.776Z,18.78
2018-06-13T22:55:26.951Z,18.76
2018-06-13T22:57:55.789Z,18.64
2018-06-13T23:00:36.660Z,18.49
2018-06-13T23:03:05.699Z,18.66
2018-06-13T23:05:34.792Z,18.69
2018-06-13T23:08:03.849Z,18.71
2018-06-13T23:10:33.283Z,18.61
2018-06-13T23:13:03.284Z,18.67
2018-06-13T23:15:32.427Z,18.59
2018-06-13T23:18:01.289Z,18.54
2018-06-13T23:20:30.415Z,18.48
2018-06-13T23:22:59.931Z,18.59
2018-06-13T23:25:29.198Z,18.56
2018-06-13T23:27:58.173Z,18.34
2018-06-13T23:30:27.186Z,18.29
2018-06-13T23:32:56.386Z,18.53
2018-06-13T23:35:25.476Z,18.35
2018-06-13T23:37:55.290Z,18.50
2018-06-13T23:40:24.036Z,18.38
2018-06-13T23:42:53.111Z,18.54
2018-06-13T23:45:22.742Z,18.43
2018-06-13T23:47:52.672Z,18.32
2018-06-13T23:50:21.819Z,18.13
2018-06-13T23:52:58.026Z,18.39
2018-06-13T23:55:42.969Z,18.48
2018-06-13T23:58:21.387Z,18.35
